createdAt,value
2023-07-01T00:02:05.498Z,100.00
2023-07-01T00:04:33.608Z,100.00
2023-07-01T00:07:01.817Z,100.00
2023-07-01T00:09:29.896Z,100.00
2023-07-01T00:11:57.939Z,100.00
2023-07-01T00:14:26.069Z,100.00
2023-07-01T00:16:56.193Z,100.00
2023-07-01T00:19:24.219Z,100.00
2023-07-01T00:21:53.545Z,100.00
2023-07-01T00:24:21.647Z,100.00
2023-07-01T00:26:49.576Z,100.00
2023-07-01T00:29:17.482Z,100.00
2023-07-01T00:31:45.494Z,100.00
2023-07-01T00:34:13.822Z,100.00
2023-07-01T00:36:41.861Z,100.00
2023-07-01T00:39:09.888Z,100.00
2023-07-01T00:41:37.994Z,100.00
2023-07-01T00:44:06.066Z,100.00
2023-07-01T00:46:35.177Z,100.00
2023-07-01T00:49:03.219Z,100.00
2023-07-01T00:51:31.678Z,100.00
2023-07-01T00:53:59.595Z,100.00
2023-07-01T00:56:27.602Z,100.00
2023-07-01T00:58:55.838Z,100.00
2023-07-01T01:01:31.106Z,100.00
2023-07-01T01:04:16.239Z,100.00
2023-07-01T01:06:59.287Z,100.00
2023-07-01T01:09:34.662Z,100.00
2023-07-01T01:12:06.677Z,100.00
2023-07-01T01:14:36.396Z,100.00
2023-07-01T01:17:06.604Z,100.00
2023-07-01T01:19:37.581Z,100.00
2023-07-01T01:22:40.160Z,100.00
2023-07-01T01:25:18.635Z,100.00
2023-07-01T01:27:46.609Z,100.00
2023-07-01T01:30:15.467Z,100.00
2023-07-01T01:32:43.436Z,100.00
2023-07-01T01:35:11.469Z,100.00
2023-07-01T01:37:41.328Z,100.00
2023-07-01T01:40:20.658Z,100.00
2023-07-01T01:42:48.866Z,100.00
2023-07-01T01:45:20.766Z,100.00
2023-07-01T01:47:50.796Z,100.00
2023-07-01T01:50:21.257Z,100.00
2023-07-01T01:52:52.135Z,100.00
2023-07-01T01:55:21.909Z,100.00
2023-07-01T01:57:50.688Z,100.00
2023-07-01T02:00:19.214Z,100.00
2023-07-01T02:02:47.463Z,100.00
2023-07-01T02:05:15.606Z,100.00
2023-07-01T02:07:43.791Z,100.00
2023-07-01T02:10:13.327Z,100.00
2023-07-01T02:12:41.371Z,100.00
2023-07-01T02:15:09.780Z,100.00
2023-07-01T02:17:37.919Z,100.00
2023-07-01T02:20:06.747Z,100.00
2023-07-01T02:22:34.695Z,100.00
2023-07-01T02:25:03.108Z,100.00
2023-07-01T02:27:32.202Z,100.00
2023-07-01T02:30:01.031Z,100.00
2023-07-01T02:32:29.291Z,100.00
2023-07-01T02:34:57.332Z,100.00
2023-07-01T02:37:25.461Z,100.00
2023-07-01T02:39:53.427Z,100.00
2023-07-01T02:42:21.775Z,100.00
2023-07-01T02:44:50.708Z,100.00
2023-07-01T02:47:19.740Z,100.00
2023-07-01T02:49:49.517Z,100.00
2023-07-01T02:52:18.608Z,100.00
2023-07-01T02:54:46.603Z,100.00
2023-07-01T02:57:14.694Z,100.00
2023-07-01T02:59:44.197Z,100.00
2023-07-01T03:02:12.258Z,100.00
2023-07-01T03:04:40.513Z,100.00
2023-07-01T03:07:08.556Z,100.00
2023-07-01T03:09:36.584Z,100.00
2023-07-01T03:12:05.113Z,100.00
2023-07-01T03:14:33.183Z,100.00
2023-07-01T03:17:01.403Z,100.00
2023-07-01T03:19:29.590Z,100.00
2023-07-01T03:21:57.647Z,100.00
2023-07-01T03:24:35.218Z,100.00
2023-07-01T03:27:07.508Z,100.00
2023-07-01T03:29:35.616Z,100.00
2023-07-01T03:32:06.585Z,100.00
2023-07-01T03:34:34.665Z,100.00
2023-07-01T03:37:02.652Z,100.00
2023-07-01T03:39:30.597Z,100.00
2023-07-01T03:41:58.516Z,100.00
2023-07-01T03:44:26.732Z,100.00
2023-07-01T03:46:54.689Z,100.00
2023-07-01T03:49:22.850Z,100.00
2023-07-01T03:51:52.945Z,100.00
2023-07-01T03:54:21.382Z,100.00
2023-07-01T03:56:49.367Z,100.00
2023-07-01T03:59:17.388Z,100.00
2023-07-01T04:01:45.451Z,100.00
2023-07-01T04:04:13.709Z,100.00
2023-07-01T04:06:41.721Z,100.00
2023-07-01T04:09:14.086Z,100.00
2023-07-01T04:11:42.538Z,100.00
2023-07-01T04:14:10.634Z,100.00
2023-07-01T04:16:38.779Z,100.00
2023-07-01T04:19:09.437Z,100.00
2023-07-01T04:21:37.833Z,100.00
2023-07-01T04:24:08.669Z,100.00
2023-07-01T04:26:36.931Z,100.00
2023-07-01T04:29:05.784Z,100.00
2023-07-01T04:31:33.913Z,100.00
2023-07-01T04:34:02.120Z,100.00
2023-07-01T04:36:30.346Z,100.00
2023-07-01T04:38:58.314Z,100.00
2023-07-01T04:41:26.468Z,100.00
2023-07-01T04:43:54.561Z,100.00
2023-07-01T04:46:22.511Z,100.00
2023-07-01T04:48:50.506Z,100.00
2023-07-01T04:51:18.481Z,100.00
2023-07-01T04:53:46.449Z,100.00
2023-07-01T04:56:14.536Z,100.00
2023-07-01T04:58:42.692Z,100.00
2023-07-01T05:01:10.721Z,100.00
2023-07-01T05:03:39.078Z,100.00
2023-07-01T05:06:07.364Z,100.00
2023-07-01T05:08:35.379Z,100.00
2023-07-01T05:11:04.627Z,100.00
2023-07-01T05:13:32.598Z,100.00
2023-07-01T05:16:00.586Z,100.00
2023-07-01T05:18:28.743Z,100.00
2023-07-01T05:20:56.861Z,100.00
2023-07-01T05:23:25.195Z,100.00
2023-07-01T05:25:53.618Z,100.00
2023-07-01T05:28:21.724Z,100.00
2023-07-01T05:30:50.746Z,100.00
2023-07-01T05:33:19.169Z,100.00
2023-07-01T05:35:47.275Z,100.00
2023-07-01T05:38:15.497Z,100.00
2023-07-01T05:40:43.445Z,100.00
2023-07-01T05:43:11.568Z,100.00
2023-07-01T05:45:39.685Z,100.00
2023-07-01T05:48:07.695Z,100.00
2023-07-01T05:50:35.683Z,100.00
2023-07-01T05:53:03.745Z,100.00
2023-07-01T05:55:31.967Z,100.00
2023-07-01T05:58:00.196Z,100.00
2023-07-01T06:00:28.741Z,100.00
2023-07-01T06:02:57.186Z,100.00
2023-07-01T06:05:25.517Z,100.00
2023-07-01T06:07:53.496Z,100.00
2023-07-01T06:10:21.676Z,100.00
2023-07-01T06:12:49.680Z,100.00
2023-07-01T06:15:17.662Z,100.00
2023-07-01T06:17:45.694Z,100.00
2023-07-01T06:20:13.885Z,100.00
2023-07-01T06:22:41.969Z,100.00
2023-07-01T06:25:11.885Z,100.00
2023-07-01T06:27:40.196Z,100.00
2023-07-01T06:30:09.060Z,100.00
2023-07-01T06:32:37.740Z,100.00
2023-07-01T06:35:06.990Z,100.00
2023-07-01T06:37:35.234Z,100.00
2023-07-01T06:40:03.685Z,100.00
2023-07-01T06:42:31.750Z,100.00
2023-07-01T06:44:59.928Z,100.00
2023-07-01T06:47:28.362Z,100.00
2023-07-01T06:49:56.542Z,100.00
2023-07-01T06:52:24.704Z,100.00
2023-07-01T06:54:52.914Z,100.00
2023-07-01T06:57:21.195Z,100.00
2023-07-01T06:59:49.171Z,100.00
2023-07-01T07:02:17.755Z,100.00
2023-07-01T07:04:46.338Z,100.00
2023-07-01T07:07:14.601Z,100.00
2023-07-01T07:09:42.615Z,100.00
2023-07-01T07:12:10.869Z,100.00
2023-07-01T07:14:40.356Z,100.00
2023-07-01T07:17:08.446Z,100.00
2023-07-01T07:19:38.264Z,100.00
2023-07-01T07:22:07.522Z,100.00
2023-07-01T07:24:35.839Z,100.00
2023-07-01T07:27:04.465Z,100.00
2023-07-01T07:29:32.745Z,100.00
2023-07-01T07:32:01.339Z,100.00
2023-07-01T07:34:30.089Z,100.00
2023-07-01T07:36:58.940Z,100.00
2023-07-01T07:39:27.153Z,100.00
2023-07-01T07:41:55.517Z,100.00
2023-07-01T07:44:24.276Z,100.00
2023-07-01T07:46:52.335Z,100.00
2023-07-01T07:49:20.528Z,100.00
2023-07-01T07:51:48.528Z,100.00
2023-07-01T07:54:16.775Z,100.00
2023-07-01T07:56:44.864Z,100.00
2023-07-01T07:59:13.239Z,100.00
2023-07-01T08:01:42.078Z,100.00
2023-07-01T08:04:10.407Z,100.00
2023-07-01T08:06:38.894Z,100.00
2023-07-01T08:09:07.172Z,100.00
2023-07-01T08:11:35.458Z,100.00
2023-07-01T08:14:03.931Z,100.00
2023-07-01T08:16:33.529Z,100.00
2023-07-01T08:19:05.337Z,100.00
2023-07-01T08:21:37.182Z,100.00
2023-07-01T08:24:08.824Z,100.00
2023-07-01T08:26:37.123Z,100.00
2023-07-01T08:29:08.716Z,100.00
2023-07-01T08:31:37.546Z,100.00
2023-07-01T08:34:05.891Z,100.00
2023-07-01T08:36:34.348Z,100.00
2023-07-01T08:39:03.830Z,100.00
2023-07-01T08:41:38.011Z,100.00
2023-07-01T08:44:07.485Z,98.93
2023-07-01T08:46:39.059Z,100.00
2023-07-01T08:49:08.263Z,76.74
2023-07-01T08:51:41.950Z,67.97
2023-07-01T08:54:10.777Z,73.33
2023-07-01T08:56:39.160Z,61.16
2023-07-01T08:59:08.054Z,57.72
2023-07-01T09:01:39.169Z,61.80
2023-07-01T09:04:07.848Z,71.16
2023-07-01T09:06:36.588Z,74.76
2023-07-01T09:09:05.336Z,77.29
2023-07-01T09:11:33.510Z,75.49
2023-07-01T09:14:01.589Z,68.02
2023-07-01T09:16:38.336Z,64.55
2023-07-01T09:19:18.538Z,66.58
2023-07-01T09:21:47.047Z,59.91
2023-07-01T09:24:15.256Z,56.11
2023-07-01T09:26:43.813Z,57.50
2023-07-01T09:29:18.669Z,58.04
2023-07-01T09:31:53.383Z,62.87
2023-07-01T09:34:23.855Z,67.76
2023-07-01T09:36:53.240Z,66.56
2023-07-01T09:39:34.604Z,59.72
2023-07-01T09:42:07.324Z,63.17
2023-07-01T09:44:37.086Z,67.33
2023-07-01T09:47:06.593Z,66.16
2023-07-01T09:49:42.646Z,65.40
2023-07-01T09:52:11.853Z,64.29
2023-07-01T09:54:43.540Z,66.82
2023-07-01T09:57:12.277Z,69.32
2023-07-01T09:59:41.443Z,73.16
2023-07-01T10:02:11.108Z,73.08
2023-07-01T10:04:41.142Z,75.71
2023-07-01T10:07:10.637Z,77.89
2023-07-01T10:09:49.144Z,77.37
2023-07-01T10:12:21.431Z,75.56
2023-07-01T10:14:54.876Z,73.28
2023-07-01T10:17:44.018Z,71.68
2023-07-01T10:20:39.086Z,71.58
2023-07-01T10:23:08.252Z,73.57
2023-07-01T10:25:39.326Z,77.89
2023-07-01T10:28:09.916Z,80.61
2023-07-01T10:30:48.438Z,75.94
2023-07-01T10:33:29.495Z,78.08
2023-07-01T10:36:12.204Z,81.47
2023-07-01T10:38:42.422Z,80.71
2023-07-01T10:41:11.871Z,83.88
2023-07-01T10:43:40.823Z,89.27
2023-07-01T10:46:10.305Z,92.32
2023-07-01T10:48:41.106Z,96.83
2023-07-01T10:51:11.267Z,98.41
2023-07-01T10:54:06.393Z,96.26
2023-07-01T10:56:39.631Z,94.69
2023-07-01T10:59:27.492Z,94.64
2023-07-01T11:01:57.882Z,96.26
2023-07-01T11:04:46.325Z,92.52
2023-07-01T11:07:25.265Z,89.90
2023-07-01T11:09:54.650Z,93.21
2023-07-01T11:12:24.608Z,89.13
2023-07-01T11:14:54.418Z,93.20
2023-07-01T11:17:24.061Z,96.78
2023-07-01T11:19:56.758Z,86.32
2023-07-01T11:22:25.117Z,85.55
2023-07-01T11:24:53.230Z,84.66
2023-07-01T11:27:22.678Z,87.87
2023-07-01T11:29:50.917Z,88.13
2023-07-01T11:32:21.381Z,93.12
2023-07-01T11:34:58.423Z,88.51
2023-07-01T11:37:28.984Z,88.27
2023-07-01T11:39:57.346Z,86.34
2023-07-01T11:42:28.524Z,88.09
2023-07-01T11:44:56.816Z,89.54
2023-07-01T11:47:25.363Z,94.34
2023-07-01T11:49:53.563Z,90.05
2023-07-01T11:52:25.945Z,84.84
2023-07-01T11:54:56.462Z,85.81
2023-07-01T11:57:25.121Z,85.24
2023-07-01T11:59:55.548Z,82.41
2023-07-01T12:02:32.061Z,79.83
2023-07-01T12:05:02.456Z,72.18
2023-07-01T12:07:31.337Z,71.82
2023-07-01T12:10:18.915Z,74.84
2023-07-01T12:12:47.261Z,79.52
2023-07-01T12:15:17.182Z,82.32
2023-07-01T12:17:45.571Z,81.63
2023-07-01T12:20:14.572Z,81.11
2023-07-01T12:22:43.187Z,76.02
2023-07-01T12:25:11.781Z,75.64
2023-07-01T12:27:39.934Z,77.26
2023-07-01T12:30:11.870Z,82.45
2023-07-01T12:32:42.136Z,80.95
2023-07-01T12:35:11.057Z,72.03
2023-07-01T12:37:41.321Z,70.74
2023-07-01T12:40:10.466Z,75.07
2023-07-01T12:42:38.813Z,77.77
2023-07-01T12:45:07.614Z,82.10
2023-07-01T12:47:40.589Z,83.19
2023-07-01T12:50:10.357Z,76.63
2023-07-01T12:52:38.532Z,83.50
2023-07-01T12:55:11.269Z,82.48
2023-07-01T12:57:40.791Z,80.61
2023-07-01T13:00:10.495Z,80.97
2023-07-01T13:02:38.736Z,74.07
2023-07-01T13:05:08.045Z,68.42
2023-07-01T13:07:36.440Z,70.49
2023-07-01T13:10:04.721Z,70.79
2023-07-01T13:12:32.800Z,73.41
2023-07-01T13:15:00.925Z,74.21
2023-07-01T13:17:39.053Z,78.93
2023-07-01T13:20:11.317Z,80.56
2023-07-01T13:22:39.617Z,77.22
2023-07-01T13:25:08.961Z,72.43
2023-07-01T13:27:37.309Z,72.26
2023-07-01T13:30:09.093Z,74.52
2023-07-01T13:32:37.397Z,71.85
2023-07-01T13:35:07.186Z,67.23
2023-07-01T13:37:35.326Z,61.67
2023-07-01T13:40:03.900Z,62.74
2023-07-01T13:42:31.894Z,68.43
2023-07-01T13:45:00.162Z,75.02
2023-07-01T13:47:31.333Z,74.63
2023-07-01T13:49:59.499Z,73.88
2023-07-01T13:52:27.955Z,72.65
2023-07-01T13:54:55.999Z,74.11
2023-07-01T13:57:29.782Z,71.05
2023-07-01T13:59:58.359Z,69.08
2023-07-01T14:02:26.463Z,67.65
2023-07-01T14:04:55.849Z,66.98
2023-07-01T14:07:25.973Z,71.93
2023-07-01T14:09:54.104Z,71.57
2023-07-01T14:12:22.205Z,72.38
2023-07-01T14:14:50.399Z,68.46
2023-07-01T14:17:22.385Z,63.91
2023-07-01T14:19:58.007Z,69.30
2023-07-01T14:22:26.544Z,73.32
2023-07-01T14:24:55.530Z,77.56
2023-07-01T14:27:31.054Z,78.84
2023-07-01T14:29:59.051Z,80.17
2023-07-01T14:32:27.631Z,79.08
2023-07-01T14:34:55.646Z,77.07
2023-07-01T14:37:23.799Z,76.83
2023-07-01T14:39:55.438Z,78.13
2023-07-01T14:42:33.704Z,74.66
2023-07-01T14:45:02.156Z,72.50
2023-07-01T14:47:30.300Z,71.73
2023-07-01T14:49:58.537Z,73.23
2023-07-01T14:52:26.618Z,80.18
2023-07-01T14:54:54.620Z,83.46
2023-07-01T14:57:22.725Z,87.40
2023-07-01T14:59:50.895Z,87.88
2023-07-01T15:02:20.030Z,87.13
2023-07-01T15:04:48.271Z,82.94
2023-07-01T15:07:16.477Z,81.92
2023-07-01T15:09:44.638Z,82.40
2023-07-01T15:12:12.765Z,84.10
2023-07-01T15:14:41.046Z,80.05
2023-07-01T15:17:09.154Z,79.18
2023-07-01T15:19:37.343Z,83.45
2023-07-01T15:22:05.908Z,81.96
2023-07-01T15:24:34.192Z,77.94
2023-07-01T15:27:02.444Z,78.65
2023-07-01T15:29:30.465Z,84.05
2023-07-01T15:31:58.529Z,86.47
2023-07-01T15:34:26.769Z,87.67
2023-07-01T15:36:55.012Z,91.75
2023-07-01T15:39:23.065Z,92.68
2023-07-01T15:41:51.149Z,92.95
2023-07-01T15:44:19.635Z,95.19
2023-07-01T15:46:48.164Z,97.45
2023-07-01T15:49:16.302Z,98.72
2023-07-01T15:51:44.973Z,98.08
2023-07-01T15:54:14.025Z,99.23
2023-07-01T15:56:42.255Z,98.00
2023-07-01T15:59:10.671Z,99.33
2023-07-01T16:01:38.861Z,99.41
2023-07-01T16:04:06.997Z,95.55
2023-07-01T16:06:35.390Z,97.10
2023-07-01T16:09:27.053Z,100.00
2023-07-01T16:11:55.120Z,100.00
2023-07-01T16:14:23.546Z,100.00
2023-07-01T16:16:55.105Z,100.00
2023-07-01T16:19:23.202Z,100.00
2023-07-01T16:21:53.129Z,100.00
2023-07-01T16:24:54.284Z,100.00
2023-07-01T16:27:25.154Z,100.00
2023-07-01T16:30:03.247Z,100.00
2023-07-01T16:32:31.464Z,100.00
2023-07-01T16:35:06.616Z,100.00
2023-07-01T16:37:35.859Z,100.00
2023-07-01T16:40:25.069Z,100.00
2023-07-01T16:42:54.195Z,100.00
2023-07-01T16:45:49.370Z,100.00
2023-07-01T16:48:23.936Z,100.00
2023-07-01T16:51:00.346Z,100.00
2023-07-01T16:53:29.271Z,100.00
2023-07-01T16:55:59.383Z,100.00
2023-07-01T16:58:33.520Z,100.00
2023-07-01T17:01:06.324Z,100.00
2023-07-01T17:03:36.292Z,100.00
2023-07-01T17:06:38.101Z,100.00
2023-07-01T17:09:07.156Z,100.00
2023-07-01T17:11:48.813Z,100.00
2023-07-01T17:14:39.020Z,100.00
2023-07-01T17:17:34.895Z,100.00
2023-07-01T17:20:07.422Z,100.00
2023-07-01T17:22:37.328Z,100.00
2023-07-01T17:25:06.066Z,100.00
2023-07-01T17:27:34.324Z,100.00
2023-07-01T17:30:02.390Z,100.00
2023-07-01T17:32:30.737Z,100.00
2023-07-01T17:35:20.038Z,100.00
2023-07-01T17:37:49.603Z,100.00
2023-07-01T17:40:22.882Z,100.00
2023-07-01T17:42:52.947Z,100.00
2023-07-01T17:45:21.701Z,100.00
2023-07-01T17:47:51.329Z,100.00
2023-07-01T17:50:22.102Z,100.00
2023-07-01T17:52:51.434Z,100.00
2023-07-01T17:55:20.201Z,100.00
2023-07-01T18:00:19.778Z,100.00
2023-07-01T18:02:47.871Z,100.00
2023-07-01T18:05:16.202Z,100.00
2023-07-01T18:07:44.505Z,100.00
2023-07-01T18:10:12.682Z,100.00
2023-07-01T18:12:42.577Z,100.00
2023-07-01T18:15:15.518Z,100.00
2023-07-01T18:17:46.584Z,100.00
2023-07-01T18:20:15.868Z,100.00
2023-07-01T18:22:44.607Z,100.00
2023-07-01T18:25:15.838Z,100.00
2023-07-01T18:27:43.911Z,100.00
2023-07-01T18:30:14.163Z,100.00
2023-07-01T18:32:45.164Z,100.00
2023-07-01T18:35:16.189Z,100.00
2023-07-01T18:37:46.602Z,100.00
2023-07-01T18:40:16.011Z,100.00
2023-07-01T18:42:44.705Z,100.00
2023-07-01T18:45:13.823Z,100.00
2023-07-01T18:47:42.778Z,100.00
2023-07-01T18:50:12.034Z,100.00
2023-07-01T18:52:42.296Z,100.00
2023-07-01T18:55:10.806Z,100.00
2023-07-01T18:57:40.170Z,100.00
2023-07-01T19:00:09.438Z,100.00
2023-07-01T19:02:38.613Z,100.00
2023-07-01T19:05:07.532Z,100.00
2023-07-01T19:07:38.930Z,100.00
2023-07-01T19:10:07.416Z,100.00
2023-07-01T19:12:35.879Z,100.00
2023-07-01T19:15:04.993Z,100.00
2023-07-01T19:17:33.264Z,100.00
2023-07-01T19:20:01.404Z,100.00
2023-07-01T19:22:31.671Z,100.00
2023-07-01T19:25:00.210Z,100.00
2023-07-01T19:27:29.840Z,100.00
2023-07-01T19:30:12.812Z,100.00
2023-07-01T19:32:42.428Z,100.00
2023-07-01T19:35:11.099Z,100.00
2023-07-01T19:37:39.497Z,100.00
2023-07-01T19:40:08.024Z,100.00
2023-07-01T19:42:38.214Z,100.00
2023-07-01T19:45:07.033Z,100.00
2023-07-01T19:47:39.225Z,100.00
2023-07-01T19:50:09.494Z,100.00
2023-07-01T19:52:39.163Z,100.00
2023-07-01T19:55:09.204Z,100.00
2023-07-01T19:57:38.418Z,100.00
2023-07-01T20:00:10.706Z,100.00
2023-07-01T20:02:39.949Z,100.00
2023-07-01T20:05:09.245Z,100.00
2023-07-01T20:07:37.669Z,100.00
2023-07-01T20:10:16.169Z,100.00
2023-07-01T20:12:52.944Z,100.00
2023-07-01T20:15:21.030Z,100.00
2023-07-01T20:17:49.099Z,100.00
2023-07-01T20:20:17.497Z,100.00
2023-07-01T20:22:46.142Z,100.00
2023-07-01T20:25:14.889Z,100.00
2023-07-01T20:27:43.045Z,100.00
2023-07-01T20:30:11.670Z,100.00
2023-07-01T20:32:40.169Z,100.00
2023-07-01T20:35:08.675Z,100.00
2023-07-01T20:37:36.815Z,100.00
2023-07-01T20:40:05.430Z,100.00
2023-07-01T20:42:37.278Z,100.00
2023-07-01T20:45:06.533Z,100.00
2023-07-01T20:47:34.747Z,100.00
2023-07-01T20:50:02.831Z,100.00
2023-07-01T20:52:30.816Z,100.00
2023-07-01T20:54:58.749Z,100.00
2023-07-01T20:57:26.778Z,100.00
2023-07-01T20:59:54.918Z,100.00
2023-07-01T21:02:22.983Z,100.00
2023-07-01T21:04:51.799Z,100.00
2023-07-01T21:07:19.882Z,100.00
2023-07-01T21:09:47.894Z,100.00
2023-07-01T21:12:15.890Z,100.00
2023-07-01T21:14:43.837Z,100.00
2023-07-01T21:17:11.902Z,100.00
2023-07-01T21:19:40.116Z,100.00
2023-07-01T21:22:08.185Z,100.00
2023-07-01T21:24:36.294Z,100.00
2023-07-01T21:27:04.707Z,100.00
2023-07-01T21:29:32.675Z,100.00
2023-07-01T21:32:00.757Z,100.00
2023-07-01T21:34:30.861Z,100.00
2023-07-01T21:36:58.870Z,100.00
2023-07-01T21:39:27.519Z,100.00
2023-07-01T21:41:56.606Z,100.00
2023-07-01T21:44:24.616Z,100.00
2023-07-01T21:46:52.699Z,100.00
2023-07-01T21:49:22.150Z,100.00
2023-07-01T21:51:50.276Z,100.00
2023-07-01T21:54:21.069Z,100.00
2023-07-01T21:56:50.193Z,100.00
2023-07-01T21:59:19.089Z,100.00
2023-07-01T22:01:47.619Z,100.00
2023-07-01T22:04:16.258Z,100.00
2023-07-01T22:06:47.596Z,100.00
2023-07-01T22:09:17.081Z,100.00
2023-07-01T22:11:46.331Z,100.00
2023-07-01T22:14:14.594Z,100.00
2023-07-01T22:16:42.815Z,100.00
2023-07-01T22:19:10.908Z,100.00
2023-07-01T22:21:39.916Z,100.00
2023-07-01T22:24:08.386Z,100.00
2023-07-01T22:26:36.473Z,100.00
2023-07-01T22:29:06.596Z,100.00
2023-07-01T22:31:35.157Z,100.00
2023-07-01T22:34:03.300Z,100.00
2023-07-01T22:36:31.163Z,100.00
2023-07-01T22:38:59.314Z,100.00
2023-07-01T22:41:27.329Z,100.00
2023-07-01T22:43:57.141Z,100.00
2023-07-01T22:46:25.185Z,100.00
2023-07-01T22:48:53.532Z,100.00
2023-07-01T22:51:21.563Z,100.00
2023-07-01T22:53:49.577Z,100.00
2023-07-01T22:56:17.814Z,100.00
2023-07-01T22:58:46.000Z,100.00
2023-07-01T23:01:14.180Z,100.00
2023-07-01T23:03:42.405Z,100.00
2023-07-01T23:06:10.679Z,100.00
2023-07-01T23:08:38.608Z,100.00
2023-07-01T23:11:06.776Z,100.00
2023-07-01T23:13:34.681Z,100.00
2023-07-01T23:16:02.855Z,100.00
2023-07-01T23:18:30.985Z,100.00
2023-07-01T23:20:58.896Z,100.00
2023-07-01T23:23:26.869Z,100.00
2023-07-01T23:25:54.924Z,100.00
2023-07-01T23:28:23.402Z,100.00
2023-07-01T23:30:52.623Z,100.00
2023-07-01T23:33:21.474Z,100.00
2023-07-01T23:35:49.533Z,100.00
2023-07-01T23:38:17.655Z,100.00
2023-07-01T23:40:45.890Z,100.00
2023-07-01T23:43:13.901Z,100.00
2023-07-01T23:45:41.877Z,100.00
2023-07-01T23:48:09.852Z,100.00
2023-07-01T23:50:38.097Z,100.00
2023-07-01T23:53:06.154Z,100.00
2023-07-01T23:55:34.113Z,100.00
2023-07-01T23:58:02.228Z,100.00
